Flight Track Log - Related Links

Times and Time Zones

All times are in EDT time to prevent confusion due to time zone crossing. See the N1944E flight status page for this flight to view local times or setup timezone preferences in your user account.

Time Position Orientation Groundspeed Altitude Reporting Facility
EDT Latitude Longitude Course Direction KTS MPH feet Rate Location/Type
Wed 02:44:37 PM 47.7044 -116.8228 130° Southeast 138 159 7,000  Level Seattle Center
Wed 02:45:39 PM 47.6994 -116.7647 97° East 139 160 7,900 829 Climbing Seattle Center
Wed 02:46:40 PM 47.7028 -116.7036 85° East 147 169 8,700 836 Climbing Seattle Center
Wed 02:47:41 PM 47.6867 -116.6481 113° Southeast 147 169 9,600 829 Climbing Seattle Center
Wed 02:48:43 PM 47.6578 -116.6036 134° Southeast 148 170 10,400 829 Climbing Seattle Center
Wed 02:49:44 PM 47.6297 -116.5533 130° Southeast 156 180 11,300 885 Climbing Seattle Center
Wed 02:50:00 PM 47.5867 -116.4850 130° Southeast  Level FlightAware Approximate
Wed 02:50:45 PM 47.6022 -116.5028 129° Southeast 154 177 12,200  Level Seattle Center
Wed 02:51:47 PM 47.5758 -116.4450 124° Southeast 166 191 13,000 878 Climbing Seattle Center
Wed 02:52:48 PM 47.5417 -116.3797 128° Southeast 166 191 14,000 927 Climbing Seattle Center
Wed 02:53:50 PM 47.5089 -116.3286 134° Southeast 170 196 14,900 488 Climbing Seattle Center
Wed 02:54:51 PM 47.4750 -116.2700 131° Southeast 183 211 15,000 49 Climbing Seattle Center
Wed 02:55:52 PM 47.4397 -116.2058 129° Southeast 199 229 15,000  Level Seattle Center
Wed 02:56:54 PM 47.4061 -116.1400 127° Southeast 202 232 15,000 49 Level Seattle Center
Wed 02:57:55 PM 47.3669 -116.0744 131° Southeast 212 244 15,100  Climbing Seattle Center
Wed 02:58:57 PM 47.3317 -116.0081 128° Southeast 208 239 15,000  Descending Seattle Center
Wed 02:59:58 PM 47.2931 -115.9439 132° Southeast 209 241 15,100 -49 Climbing Seattle Center
Wed 03:01:00 PM 47.2542 -115.8772 131° Southeast 213 245 14,900 -98 Descending Seattle Center
Wed 03:02:01 PM 47.2097 -115.7989 130° Southeast 209 241 14,900  Level Seattle Center
Wed 03:03:02 PM 47.1742 -115.7317 128° Southeast 209 241 14,900  Level Seattle Center
Wed 03:04:04 PM 47.1369 -115.6681 131° Southeast 207 238 14,900 48 Level Seattle Center
Wed 03:05:07 PM 47.0953 -115.5975 131° Southeast 208 239 15,000 48 Climbing Salt Lake Center
Wed 03:06:09 PM 47.0608 -115.5289 126° Southeast 209 241 15,000 -48 Level Salt Lake Center
Wed 03:07:11 PM 47.0258 -115.4608 127° Southeast 210 242 14,900  Descending Salt Lake Center
Wed 03:08:13 PM 46.9922 -115.3919 126° Southeast 209 241 15,000 -50 Climbing Salt Lake Center
Wed 03:09:11 PM 46.9592 -115.3264 126° Southeast 203 234 14,800 -50 Descending Seattle Center
Wed 03:10:12 PM 46.9256 -115.2606 127° Southeast 202 232 14,900 49 Climbing Seattle Center
Wed 03:11:14 PM 46.8883 -115.1978 131° Southeast 204 235 14,900 49 Level Seattle Center
Wed 03:12:15 PM 46.8489 -115.1389 134° Southeast 204 235 15,000  Climbing Seattle Center
Wed 03:13:17 PM 46.8103 -115.0761 132° Southeast 207 238 14,900  Descending Seattle Center
Wed 03:14:18 PM 46.7647 -115.0031 132° Southeast 204 235 15,000 49 Climbing Seattle Center
Wed 03:15:19 PM 46.7289 -114.9389 129° Southeast 204 235 15,000 -49 Level Seattle Center
Wed 03:16:21 PM 46.6917 -114.8772 131° Southeast 204 235 14,900  Descending Seattle Center
Wed 03:17:22 PM 46.6572 -114.8106 127° Southeast 206 237 15,000 -293 Climbing Seattle Center
Wed 03:18:24 PM 46.6219 -114.7406 126° Southeast 212 244 14,300 -732 Descending Seattle Center
Wed 03:19:25 PM 46.5797 -114.6703 131° Southeast 226 260 13,500 -787 Descending Seattle Center

Login

Don't have an account? Register now (free) for customized features, flight alerts, and more!